Time;durP1;ratioP1;P1;durP2;ratioP2;P2;SDS_P1;SDS_P2;PMS_P1;PMS_P2;Temp;Humidity;BMP_temperature;BMP_pressure;BME280_temperature;BME280_humidity;BME280_pressure;Samples;Min_cycle;Max_cycle;Signal;HPM_P1;HPM_P2
2021/03/06 00:02:16;;;;;;;7.53;3.72;;;20.00;28.60;;;;;;5095489;28;20164;-60
2021/03/06 00:04:41;;;;;;;7.43;3.58;;;20.00;28.60;;;;;;5095060;28;20046;-60
2021/03/06 00:07:07;;;;;;;7.47;3.75;;;19.90;28.60;;;;;;5095427;28;20055;-59
2021/03/06 00:09:32;;;;;;;6.22;3.40;;;19.90;28.70;;;;;;5095339;28;20027;-60
2021/03/06 00:11:58;;;;;;;6.97;3.85;;;19.90;28.60;;;;;;5095468;28;20024;-60
2021/03/06 00:14:24;;;;;;;7.40;3.55;;;19.90;28.60;;;;;;5095340;28;20028;-59
2021/03/06 00:16:49;;;;;;;8.02;3.70;;;19.90;28.60;;;;;;5095321;28;20028;-60
2021/03/06 00:19:15;;;;;;;6.78;3.45;;;19.90;28.70;;;;;;5095229;28;20040;-60
2021/03/06 00:21:40;;;;;;;6.93;3.78;;;19.80;28.60;;;;;;5095215;28;20043;-60
2021/03/06 00:24:07;;;;;;;7.55;3.67;;;19.90;28.60;;;;;;5094662;28;20024;-59
2021/03/06 00:26:32;;;;;;;7.22;3.63;;;19.80;28.60;;;;;;5093855;28;20028;-60
2021/03/06 00:28:58;;;;;;;6.38;3.38;;;19.80;28.60;;;;;;5095712;28;20024;-59
2021/03/06 00:31:23;;;;;;;7.40;3.97;;;19.80;28.60;;;;;;5097886;28;20036;-60
2021/03/06 00:33:49;;;;;;;7.75;3.70;;;19.80;28.60;;;;;;5095300;28;20068;-60
2021/03/06 00:36:15;;;;;;;7.97;3.65;;;19.80;28.60;;;;;;5095494;28;20024;-61
2021/03/06 00:38:40;;;;;;;7.07;3.70;;;19.80;28.60;;;;;;5095112;28;20429;-60
2021/03/06 00:41:06;;;;;;;7.32;3.47;;;19.80;28.60;;;;;;5093525;28;20456;-60
2021/03/06 00:43:31;;;;;;;6.90;3.50;;;19.80;28.60;;;;;;5094241;28;20031;-60
2021/03/06 00:45:57;;;;;;;7.10;3.58;;;19.70;28.60;;;;;;5095141;28;20024;-60
2021/03/06 00:48:22;;;;;;;7.57;3.70;;;19.70;28.60;;;;;;5094598;28;20035;-59
2021/03/06 00:50:48;;;;;;;7.82;3.53;;;19.70;28.60;;;;;;5094972;28;20119;-59
2021/03/06 00:53:13;;;;;;;9.00;3.58;;;19.70;28.60;;;;;;5094358;28;20024;-59
2021/03/06 00:55:39;;;;;;;7.82;3.58;;;19.70;28.60;;;;;;5094187;28;20055;-60
2021/03/06 00:58:04;;;;;;;6.70;2.85;;;19.70;28.60;;;;;;5094468;28;20478;-60
2021/03/06 01:00:30;;;;;;;8.40;3.47;;;19.70;28.50;;;;;;5094389;28;20028;-60
2021/03/06 01:02:56;;;;;;;7.68;4.07;;;19.70;28.60;;;;;;5094200;28;20027;-59
2021/03/06 01:05:21;;;;;;;7.65;3.45;;;19.70;28.60;;;;;;5094836;28;20063;-60
2021/03/06 01:07:47;;;;;;;8.65;3.70;;;19.70;28.60;;;;;;5094184;28;20027;-59
2021/03/06 01:10:23;;;;;;;7.45;3.40;;;19.70;28.60;;;;;;5094265;28;20387;-60
2021/03/06 01:12:49;;;;;;;6.63;3.40;;;19.60;28.60;;;;;;5094557;28;20044;-59
2021/03/06 01:15:14;;;;;;;7.55;3.50;;;19.60;28.60;;;;;;5094636;28;20031;-59
2021/03/06 01:17:40;;;;;;;7.53;3.60;;;19.60;28.60;;;;;;5092683;28;20067;-59
2021/03/06 01:20:06;;;;;;;7.10;3.50;;;19.60;28.60;;;;;;5094071;28;20054;-59
2021/03/06 01:22:32;;;;;;;7.97;3.40;;;19.60;28.60;;;;;;5093576;28;20036;-60
2021/03/06 01:24:58;;;;;;;7.32;3.20;;;19.60;28.50;;;;;;5094101;28;20050;-59
2021/03/06 01:27:23;;;;;;;6.95;3.20;;;19.60;28.60;;;;;;5093710;28;20425;-59
2021/03/06 01:29:49;;;;;;;6.97;3.20;;;19.50;28.60;;;;;;5094255;28;20413;-59
2021/03/06 01:32:14;;;;;;;6.88;3.35;;;19.50;28.60;;;;;;5093989;28;20590;-59
2021/03/06 01:34:40;;;;;;;7.03;3.42;;;19.50;28.50;;;;;;5093885;28;20395;-59
2021/03/06 01:37:06;;;;;;;8.05;3.83;;;19.50;28.50;;;;;;5093812;28;20464;-60
2021/03/06 01:39:31;;;;;;;6.10;3.08;;;19.50;28.50;;;;;;5093867;28;20028;-60
2021/03/06 01:41:57;;;;;;;7.15;3.33;;;19.50;28.50;;;;;;5093282;28;20127;-59
2021/03/06 01:44:23;;;;;;;7.07;3.72;;;19.50;28.50;;;;;;5092294;28;20032;-60
2021/03/06 01:46:48;;;;;;;6.57;3.30;;;19.50;28.60;;;;;;5094165;28;20031;-59
2021/03/06 01:49:14;;;;;;;6.55;3.40;;;19.50;28.60;;;;;;5093941;28;20016;-59
2021/03/06 01:51:40;;;;;;;6.57;3.30;;;19.50;28.60;;;;;;5093920;28;20510;-59
2021/03/06 01:54:08;;;;;;;6.80;3.35;;;19.50;28.60;;;;;;5093763;28;20024;-59
2021/03/06 01:56:33;;;;;;;7.10;3.22;;;19.50;28.60;;;;;;5092392;28;20497;-60
2021/03/06 01:59:00;;;;;;;7.68;3.47;;;19.50;28.60;;;;;;5093776;28;20028;-59
2021/03/06 02:01:26;;;;;;;7.05;3.67;;;19.50;28.60;;;;;;5093315;28;20024;-59
2021/03/06 02:03:51;;;;;;;6.20;3.00;;;19.50;28.60;;;;;;5093474;28;20101;-59
2021/03/06 02:06:17;;;;;;;6.57;3.38;;;19.50;28.50;;;;;;5093764;28;20077;-59
2021/03/06 02:08:43;;;;;;;8.75;3.88;;;19.50;28.60;;;;;;5093244;28;20025;-59
2021/03/06 02:11:09;;;;;;;6.95;3.35;;;19.40;28.60;;;;;;5093621;28;20031;-60
2021/03/06 02:14:05;;;;;;;8.73;3.20;;;19.40;28.60;;;;;;5093125;28;20027;-59
2021/03/06 02:16:44;;;;;;;7.35;3.83;;;19.40;28.60;;;;;;5093125;28;20494;-59
2021/03/06 02:19:19;;;;;;;6.82;3.42;;;19.40;28.60;;;;;;5093070;28;20052;-59
2021/03/06 02:22:02;;;;;;;;;;;19.40;28.60;;;;;;5093408;28;20035;-59
2021/03/06 02:24:30;;;;;;;7.28;3.40;;;19.40;28.70;;;;;;5092787;28;19912;-59
2021/03/06 02:27:11;;;;;;;7.95;3.55;;;19.40;28.70;;;;;;5092852;28;20528;-59
2021/03/06 02:29:37;;;;;;;7.82;3.67;;;19.40;28.60;;;;;;5093218;28;20024;-59
2021/03/06 02:32:15;;;;;;;7.65;3.72;;;19.40;28.60;;;;;;5092996;28;20444;-60
2021/03/06 02:34:45;;;;;;;7.93;3.42;;;19.40;28.70;;;;;;5092763;28;20480;-59
2021/03/06 02:37:13;;;;;;;7.05;3.55;;;19.30;28.70;;;;;;5092983;28;20020;-59
2021/03/06 02:39:43;;;;;;;7.28;4.00;;;19.30;28.60;;;;;;5093520;28;20032;-60
2021/03/06 02:42:12;;;;;;;8.35;3.97;;;19.30;28.70;;;;;;5097915;28;20016;-59
2021/03/06 02:44:40;;;;;;;8.93;3.88;;;19.30;28.70;;;;;;5102743;28;20032;-60
2021/03/06 02:47:06;;;;;;;7.38;3.53;;;19.30;28.70;;;;;;5103553;28;20029;-60
2021/03/06 02:49:31;;;;;;;7.63;3.90;;;19.30;28.70;;;;;;5093915;28;20030;-59
2021/03/06 02:51:57;;;;;;;6.35;3.63;;;19.30;28.60;;;;;;5098100;28;20421;-59
2021/03/06 02:54:22;;;;;;;7.35;3.58;;;19.30;28.70;;;;;;5096467;28;20028;-60
2021/03/06 02:56:48;;;;;;;7.00;3.65;;;19.30;28.70;;;;;;5096702;28;20040;-60
2021/03/06 03:00:02;;;;;;;7.75;3.67;;;19.30;28.70;;;;;;5097558;28;20035;-59
2021/03/06 03:02:46;;;;;;;7.75;3.83;;;19.30;28.60;;;;;;5087668;28;20028;-59
2021/03/06 03:05:36;;;;;;;8.18;3.95;;;19.30;28.70;;;;;;5096570;28;20044;-60
2021/03/06 03:08:10;;;;;;;8.00;4.18;;;19.30;28.60;;;;;;5096645;28;20024;-59
2021/03/06 03:10:39;;;;;;;6.32;3.60;;;19.30;28.70;;;;;;5096965;28;20020;-60
2021/03/06 03:13:10;;;;;;;7.95;3.58;;;19.30;28.70;;;;;;5096191;28;20360;-60
2021/03/06 03:15:42;;;;;;;7.95;4.28;;;19.20;28.70;;;;;;5096072;28;20043;-60
2021/03/06 03:18:16;;;;;;;7.15;3.90;;;19.20;28.70;;;;;;5095796;28;20048;-60
2021/03/06 03:20:48;;;;;;;;;;;19.20;28.70;;;;;;5096064;28;20028;-60
2021/03/06 03:23:29;;;;;;;6.63;3.65;;;19.20;28.70;;;;;;5095885;28;19957;-61
2021/03/06 03:25:57;;;;;;;7.30;3.70;;;19.20;28.60;;;;;;5096165;28;20460;-59
2021/03/06 03:28:24;;;;;;;7.43;4.18;;;19.20;28.60;;;;;;5095964;28;20054;-59
2021/03/06 03:30:50;;;;;;;7.60;3.92;;;19.20;28.60;;;;;;5096237;28;20069;-60
2021/03/06 03:33:18;;;;;;;6.65;3.72;;;19.20;28.70;;;;;;5096478;28;20024;-59
2021/03/06 03:35:45;;;;;;;7.97;3.97;;;19.10;28.60;;;;;;5096147;28;20028;-60
2021/03/06 03:38:11;;;;;;;7.10;3.53;;;19.10;28.60;;;;;;5095974;28;20031;-59
2021/03/06 03:40:37;;;;;;;7.90;3.80;;;19.20;28.60;;;;;;5096102;28;20157;-60
2021/03/06 03:43:05;;;;;;;7.70;4.05;;;19.10;28.70;;;;;;5096012;28;20494;-60
2021/03/06 03:45:31;;;;;;;7.72;3.80;;;19.20;28.60;;;;;;5095371;28;20047;-60
2021/03/06 03:47:58;;;;;;;7.10;3.42;;;19.10;28.60;;;;;;5095950;28;20047;-59
2021/03/06 03:50:25;;;;;;;7.65;4.05;;;19.10;28.70;;;;;;5095825;28;20028;-59
2021/03/06 03:52:51;;;;;;;8.05;3.67;;;19.10;28.70;;;;;;5095686;28;20032;-60
2021/03/06 03:55:17;;;;;;;8.52;4.20;;;19.10;28.70;;;;;;5095418;28;20032;-59
2021/03/06 03:57:45;;;;;;;7.57;3.72;;;19.10;28.70;;;;;;5095832;28;20031;-60
2021/03/06 04:00:12;;;;;;;7.82;3.38;;;19.10;28.70;;;;;;5095602;28;20027;-60
2021/03/06 04:02:38;;;;;;;7.78;3.70;;;19.10;28.70;;;;;;5095237;28;20020;-59
2021/03/06 04:05:05;;;;;;;6.65;3.53;;;19.00;28.70;;;;;;5095754;28;20131;-60
2021/03/06 04:07:41;;;;;;;6.93;3.42;;;19.10;28.70;;;;;;5095463;28;20065;-60
2021/03/06 04:10:08;;;;;;;7.53;3.20;;;19.10;28.70;;;;;;5095257;28;20464;-59
2021/03/06 04:12:33;;;;;;;7.60;3.65;;;19.10;28.60;;;;;;5095740;28;20141;-60
2021/03/06 04:14:59;;;;;;;6.38;3.47;;;19.00;28.70;;;;;;5095730;28;20032;-59
2021/03/06 04:17:24;;;;;;;7.45;3.38;;;19.00;28.70;;;;;;5095441;28;20047;-60
2021/03/06 04:19:50;;;;;;;8.82;3.60;;;19.00;28.70;;;;;;5095214;28;20067;-60
2021/03/06 04:22:15;;;;;;;6.68;3.58;;;19.00;28.70;;;;;;5095246;28;20529;-60
2021/03/06 04:24:41;;;;;;;8.55;3.47;;;19.00;28.60;;;;;;5095368;28;20472;-60
2021/03/06 04:27:07;;;;;;;7.97;3.78;;;19.00;28.60;;;;;;5095294;28;20016;-60
2021/03/06 04:29:32;;;;;;;7.95;3.47;;;19.00;28.70;;;;;;5095205;28;20458;-60
2021/03/06 04:31:58;;;;;;;7.00;3.28;;;19.00;28.70;;;;;;5094714;28;20480;-60
2021/03/06 04:34:23;;;;;;;6.65;3.33;;;19.00;28.70;;;;;;5094952;28;20028;-60
2021/03/06 04:36:49;;;;;;;8.45;3.58;;;19.00;28.60;;;;;;5094629;28;20030;-59
2021/03/06 04:39:14;;;;;;;7.60;3.50;;;19.00;28.70;;;;;;5096324;28;20028;-59
2021/03/06 04:41:40;;;;;;;6.72;3.60;;;19.00;28.60;;;;;;5095440;28;20032;-60
2021/03/06 04:44:06;;;;;;;7.20;3.40;;;19.00;28.70;;;;;;5096070;28;20452;-61
2021/03/06 04:46:32;;;;;;;8.02;3.80;;;19.00;28.70;;;;;;5094357;28;20016;-59
2021/03/06 04:48:58;;;;;;;7.05;3.60;;;18.90;28.70;;;;;;5095285;28;20015;-60
2021/03/06 04:51:23;;;;;;;8.20;3.95;;;19.00;28.70;;;;;;5095515;28;20483;-59
2021/03/06 04:53:49;;;;;;;8.68;3.75;;;18.90;28.60;;;;;;5094932;28;20019;-60
2021/03/06 04:56:15;;;;;;;6.80;3.47;;;18.90;28.60;;;;;;5096266;28;20024;-60
2021/03/06 04:58:40;;;;;;;7.60;3.75;;;18.90;28.60;;;;;;5095629;28;20110;-60
2021/03/06 05:01:06;;;;;;;7.18;3.40;;;18.90;28.70;;;;;;5098452;28;20035;-59
2021/03/06 05:03:31;;;;;;;8.98;3.83;;;18.90;28.60;;;;;;5096624;28;20063;-60
2021/03/06 05:05:57;;;;;;;7.50;3.47;;;18.90;28.60;;;;;;5096197;28;20052;-60
2021/03/06 05:08:22;;;;;;;6.53;3.38;;;18.90;28.70;;;;;;5095577;28;20039;-59
2021/03/06 05:10:47;;;;;;;6.00;3.22;;;18.90;28.60;;;;;;5098589;28;20484;-60
2021/03/06 05:13:13;;;;;;;6.68;3.00;;;18.90;28.70;;;;;;5097041;28;20024;-60
2021/03/06 05:15:38;;;;;;;6.93;3.58;;;18.90;28.60;;;;;;5094977;28;20093;-59
2021/03/06 05:18:04;;;;;;;7.28;3.30;;;19.00;28.60;;;;;;5095988;28;20048;-59
2021/03/06 05:20:30;;;;;;;6.32;3.10;;;19.00;28.60;;;;;;5095639;28;20032;-60
2021/03/06 05:22:55;;;;;;;8.82;3.55;;;19.00;28.50;;;;;;5094360;28;20487;-59
2021/03/06 05:25:21;;;;;;;5.82;3.00;;;19.10;28.60;;;;;;5093530;28;20040;-60
2021/03/06 05:27:52;;;;;;;7.45;3.28;;;19.10;28.60;;;;;;5094022;28;20072;-60
2021/03/06 05:30:18;;;;;;;6.90;3.20;;;19.10;28.50;;;;;;5095309;28;20067;-59
2021/03/06 05:32:44;;;;;;;7.30;2.83;;;19.10;28.50;;;;;;5096799;28;20031;-60
2021/03/06 05:35:10;;;;;;;7.88;3.70;;;19.20;28.50;;;;;;5096290;28;20036;-60
2021/03/06 05:37:35;;;;;;;6.53;3.58;;;19.20;28.40;;;;;;5094923;28;20020;-61
2021/03/06 05:40:01;;;;;;;5.97;3.15;;;19.20;28.50;;;;;;5093472;28;20038;-60
2021/03/06 05:42:28;;;;;;;6.22;3.35;;;19.20;28.30;;;;;;5094494;28;20058;-60
2021/03/06 05:44:56;;;;;;;7.25;3.30;;;19.20;28.30;;;;;;5093919;28;20368;-60
2021/03/06 05:47:22;;;;;;;7.47;3.35;;;19.20;28.30;;;;;;5095834;28;20061;-60
2021/03/06 05:49:49;;;;;;;7.18;3.50;;;19.30;28.30;;;;;;5095041;28;20396;-60
2021/03/06 05:52:17;;;;;;;6.82;3.35;;;19.30;28.30;;;;;;5093722;28;20054;-60
2021/03/06 05:54:48;;;;;;;6.57;3.40;;;19.30;28.20;;;;;;5093284;28;20073;-60
2021/03/06 05:57:13;;;;;;;7.95;3.28;;;19.30;28.30;;;;;;5092518;28;20024;-60
2021/03/06 05:59:40;;;;;;;6.78;3.03;;;19.40;28.20;;;;;;5094106;28;20416;-60
2021/03/06 06:02:05;;;;;;;5.38;2.58;;;19.40;28.20;;;;;;5093700;28;20379;-60
2021/03/06 06:04:32;;;;;;;7.85;3.20;;;19.40;28.30;;;;;;5093239;28;20036;-59
2021/03/06 06:07:01;;;;;;;9.80;3.63;;;19.40;28.20;;;;;;5093203;28;20380;-59
2021/03/06 06:09:27;;;;;;;7.00;3.22;;;19.50;28.10;;;;;;5092927;28;20039;-59
2021/03/06 06:11:52;;;;;;;6.25;3.10;;;19.50;28.10;;;;;;5093011;28;20032;-60
2021/03/06 06:14:18;;;;;;;7.10;3.63;;;19.50;28.10;;;;;;5094272;28;20459;-59
2021/03/06 06:16:43;;;;;;;6.47;2.92;;;19.50;28.10;;;;;;5094297;28;20036;-59
2021/03/06 06:19:09;;;;;;;7.03;3.00;;;19.50;28.10;;;;;;5093825;28;20056;-59
2021/03/06 06:21:38;;;;;;;5.68;2.90;;;19.50;28.00;;;;;;5093796;28;20028;-60
2021/03/06 06:24:09;;;;;;;5.22;3.00;;;19.50;27.90;;;;;;5094262;28;20476;-59
2021/03/06 06:26:36;;;;;;;7.72;3.30;;;19.50;28.00;;;;;;5097259;28;20101;-60
2021/03/06 06:29:02;;;;;;;6.70;3.10;;;19.60;28.00;;;;;;5097586;28;20517;-59
2021/03/06 06:31:28;;;;;;;6.38;3.60;;;19.60;28.00;;;;;;5097288;28;20024;-60
2021/03/06 06:33:54;;;;;;;6.57;3.20;;;19.60;28.00;;;;;;5097192;28;20032;-59
2021/03/06 06:36:39;;;;;;;7.82;3.42;;;19.60;28.00;;;;;;5097597;28;20020;-60
2021/03/06 06:39:09;;;;;;;6.55;3.50;;;19.60;28.00;;;;;;5097098;28;20035;-59
2021/03/06 06:41:48;;;;;;;6.70;2.88;;;19.70;27.90;;;;;;5096858;28;20103;-59
2021/03/06 06:44:13;;;;;;;7.60;2.88;;;19.70;28.00;;;;;;5096733;28;20024;-59
2021/03/06 06:46:39;;;;;;;8.85;3.63;;;19.60;27.90;;;;;;5096945;28;20031;-60
2021/03/06 06:49:04;;;;;;;6.82;2.97;;;19.70;27.90;;;;;;5096836;28;20082;-60
2021/03/06 06:51:30;;;;;;;6.18;3.03;;;19.70;27.90;;;;;;5096493;28;20081;-60
2021/03/06 06:54:15;;;;;;;6.35;3.22;;;19.70;27.90;;;;;;5096139;28;20016;-59
2021/03/06 06:56:41;;;;;;;6.78;3.13;;;19.70;27.90;;;;;;5097286;28;20117;-60
2021/03/06 06:59:08;;;;;;;6.03;2.78;;;19.70;27.90;;;;;;5096549;28;20056;-60
2021/03/06 07:01:36;;;;;;;7.05;3.30;;;19.80;27.90;;;;;;5096249;28;20024;-60
2021/03/06 07:04:06;;;;;;;6.50;3.08;;;19.80;27.80;;;;;;5096436;28;20471;-60
2021/03/06 07:06:33;;;;;;;6.43;3.08;;;19.80;27.90;;;;;;5096199;28;20031;-60
2021/03/06 07:09:06;;;;;;;6.40;3.40;;;19.80;27.90;;;;;;5096225;28;20520;-60
2021/03/06 07:11:33;;;;;;;6.35;3.20;;;19.80;27.80;;;;;;5095908;28;20070;-60
2021/03/06 07:13:59;;;;;;;6.65;3.33;;;19.80;27.80;;;;;;5096519;28;20028;-60
2021/03/06 07:16:45;;;;;;;10.98;3.65;;;19.90;27.80;;;;;;5095939;28;20059;-60
2021/03/06 07:19:10;;;;;;;8.43;3.45;;;19.90;27.80;;;;;;5096119;28;20048;-60
2021/03/06 07:21:47;;;;;;;6.05;2.90;;;19.90;27.80;;;;;;5096152;28;20456;-60
2021/03/06 07:24:13;;;;;;;7.72;3.75;;;19.90;27.80;;;;;;5096446;28;20080;-60
2021/03/06 07:26:39;;;;;;;6.32;3.40;;;19.90;27.80;;;;;;5096167;28;20177;-60
2021/03/06 07:29:04;;;;;;;6.22;3.38;;;20.00;27.80;;;;;;5096143;28;20057;-60
2021/03/06 07:31:30;;;;;;;7.88;4.10;;;20.00;27.80;;;;;;5095757;28;20024;-60
2021/03/06 07:33:57;;;;;;;8.88;3.25;;;20.00;27.80;;;;;;5094782;28;20020;-60
2021/03/06 07:36:23;;;;;;;6.25;3.05;;;20.00;27.80;;;;;;5095684;28;20032;-60
2021/03/06 07:38:48;;;;;;;7.00;3.45;;;20.00;27.80;;;;;;5096530;28;20082;-60
2021/03/06 07:41:18;;;;;;;7.15;3.03;;;20.00;27.80;;;;;;5096101;28;20024;-59
2021/03/06 07:43:47;;;;;;;9.00;3.63;;;20.00;27.80;;;;;;5095855;28;20016;-60
2021/03/06 07:46:15;;;;;;;6.20;3.50;;;20.10;27.80;;;;;;5095991;28;20027;-60
2021/03/06 07:48:42;;;;;;;7.68;3.38;;;20.10;27.80;;;;;;5096191;28;20024;-61
2021/03/06 07:51:09;;;;;;;6.80;3.30;;;20.10;27.80;;;;;;5095769;28;20020;-61
2021/03/06 07:53:36;;;;;;;7.05;3.40;;;20.10;27.80;;;;;;5096407;28;20023;-60
2021/03/06 07:56:06;;;;;;;6.32;3.10;;;20.10;27.80;;;;;;5100179;28;20115;-61
2021/03/06 07:58:50;;;;;;;6.63;3.10;;;20.10;27.80;;;;;;5106400;28;20119;-60
2021/03/06 08:01:26;;;;;;;6.93;3.08;;;20.10;27.70;;;;;;5105109;28;20214;-61
2021/03/06 08:03:52;;;;;;;6.18;2.97;;;20.20;27.70;;;;;;5096987;28;20073;-60
2021/03/06 08:06:22;;;;;;;7.10;3.15;;;20.20;27.70;;;;;;5096375;28;20420;-60
2021/03/06 08:08:47;;;;;;;5.95;3.03;;;20.20;27.70;;;;;;5095538;28;20408;-60
2021/03/06 08:11:15;;;;;;;6.55;3.25;;;20.20;27.70;;;;;;5095532;28;20024;-59
2021/03/06 08:13:52;;;;;;;7.50;3.28;;;20.20;27.70;;;;;;5094855;28;20107;-60
2021/03/06 08:16:23;;;;;;;6.30;2.65;;;20.30;27.70;;;;;;5094792;28;20028;-60
2021/03/06 08:18:49;;;;;;;7.75;3.70;;;20.30;27.70;;;;;;5095163;28;20080;-60
2021/03/06 08:21:27;;;;;;;5.63;2.92;;;20.20;27.70;;;;;;5095086;28;20085;-60
2021/03/06 08:24:19;;;;;;;7.03;3.33;;;20.30;27.70;;;;;;5094538;28;20376;-61
2021/03/06 08:27:12;;;;;;;5.85;2.90;;;20.30;27.70;;;;;;5092799;28;20036;-60
2021/03/06 08:29:38;;;;;;;8.68;3.33;;;20.30;27.70;;;;;;5092867;28;20028;-60
2021/03/06 08:32:07;;;;;;;6.60;2.78;;;20.40;27.70;;;;;;5094903;28;20050;-61
2021/03/06 08:34:51;;;;;;;6.05;2.97;;;20.40;27.70;;;;;;5094880;28;20059;-60
2021/03/06 08:37:19;;;;;;;7.82;2.83;;;20.40;27.70;;;;;;5093114;28;20115;-60
2021/03/06 08:39:56;;;;;;;6.45;2.67;;;20.40;27.70;;;;;;5094355;28;20023;-60
2021/03/06 08:42:23;;;;;;;6.38;3.13;;;20.40;27.60;;;;;;5094480;28;20034;-60
2021/03/06 08:44:51;;;;;;;5.78;2.83;;;20.40;27.60;;;;;;5094463;28;20027;-60
2021/03/06 08:47:25;;;;;;;7.68;3.10;;;20.40;27.60;;;;;;5093856;28;20024;-60
2021/03/06 08:49:56;;;;;;;5.95;2.78;;;20.50;27.50;;;;;;5094298;28;20077;-60
2021/03/06 08:52:23;;;;;;;5.80;2.67;;;20.50;27.60;;;;;;5094656;28;20024;-60
2021/03/06 08:54:49;;;;;;;6.47;2.83;;;20.50;27.60;;;;;;5094190;28;20034;-61
2021/03/06 08:57:28;;;;;;;6.32;2.42;;;20.50;27.60;;;;;;5094296;28;20434;-60
2021/03/06 08:59:55;;;;;;;5.97;2.72;;;20.50;27.70;;;;;;5094123;28;20028;-59
2021/03/06 09:02:28;;;;;;;7.43;3.30;;;20.50;27.60;;;;;;5095056;28;20051;-60
2021/03/06 09:05:15;;;;;;;5.80;2.67;;;20.50;27.60;;;;;;5094601;28;20039;-60
2021/03/06 09:07:47;;;;;;;8.18;2.83;;;20.50;27.60;;;;;;5093955;28;20024;-59
2021/03/06 09:10:32;;;;;;;6.03;3.05;;;20.50;27.60;;;;;;5094465;28;20024;-59
2021/03/06 09:13:16;;;;;;;5.38;2.30;;;20.50;27.60;;;;;;5094500;28;20020;-59
2021/03/06 09:15:58;;;;;;;6.30;2.88;;;20.60;27.60;;;;;;5094413;28;20020;-60
2021/03/06 09:18:30;;;;;;;5.30;2.58;;;20.60;27.60;;;;;;5094273;28;20127;-60
2021/03/06 09:20:57;;;;;;;5.78;2.65;;;20.60;27.60;;;;;;5094492;28;20016;-59
2021/03/06 09:23:34;;;;;;;5.88;2.50;;;20.70;27.60;;;;;;5100686;28;20375;-60
2021/03/06 09:26:09;;;;;;;5.53;2.60;;;20.70;27.60;;;;;;5094545;28;20392;-59
2021/03/06 09:28:35;;;;;;;6.22;2.85;;;20.70;27.60;;;;;;5093885;28;20020;-61
2021/03/06 09:31:04;;;;;;;5.32;2.45;;;20.70;27.60;;;;;;5093836;28;20028;-61
2021/03/06 09:33:32;;;;;;;5.68;2.42;;;20.70;27.50;;;;;;5093895;28;20073;-59
2021/03/06 09:36:07;;;;;;;7.40;2.80;;;20.70;27.60;;;;;;5093757;28;20028;-59
2021/03/06 09:38:34;;;;;;;5.70;2.63;;;20.70;27.50;;;;;;5093100;28;20020;-59
2021/03/06 09:41:00;;;;;;;5.07;2.20;;;20.70;27.60;;;;;;5093139;28;20031;-59
2021/03/06 09:43:29;;;;;;;4.82;2.40;;;20.80;27.50;;;;;;5091643;28;20092;-59
2021/03/06 09:45:56;;;;;;;6.50;2.58;;;20.80;27.50;;;;;;5093170;28;20040;-59
2021/03/06 09:48:21;;;;;;;5.55;2.58;;;20.80;27.50;;;;;;5092900;28;20523;-59
2021/03/06 09:50:48;;;;;;;5.43;2.60;;;20.80;27.50;;;;;;5092758;28;20154;-60
2021/03/06 09:53:21;;;;;;;6.45;2.65;;;20.80;27.50;;;;;;5092843;28;20021;-60
2021/03/06 09:56:00;;;;;;;6.68;2.92;;;20.80;27.50;;;;;;5091483;28;20036;-60
2021/03/06 09:58:26;;;;;;;6.35;2.33;;;20.80;27.40;;;;;;5092799;28;20036;-60
2021/03/06 10:00:52;;;;;;;5.45;2.15;;;20.90;27.40;;;;;;5096933;28;20034;-60
2021/03/06 10:03:36;;;;;;;5.85;2.47;;;20.90;27.30;;;;;;5096835;28;20028;-59
2021/03/06 10:06:04;;;;;;;;;;;20.90;27.20;;;;;;5097150;28;20484;-60
2021/03/06 10:08:32;;;;;;;4.82;2.20;;;20.90;27.30;;;;;;5096821;28;19904;-60
2021/03/06 10:10:59;;;;;;;7.03;2.35;;;21.00;27.30;;;;;;5096607;28;20027;-60
2021/03/06 10:13:26;;;;;;;5.07;2.22;;;21.00;27.20;;;;;;5096962;28;20024;-61
2021/03/06 10:15:53;;;;;;;5.68;2.35;;;21.00;27.30;;;;;;5096556;28;20379;-60
2021/03/06 10:18:20;;;;;;;5.07;2.28;;;21.00;27.30;;;;;;5096513;28;20060;-60
2021/03/06 10:20:48;;;;;;;4.65;2.13;;;21.00;27.10;;;;;;5096547;28;20441;-60
2021/03/06 10:23:14;;;;;;;5.30;1.98;;;21.10;27.20;;;;;;5096564;28;20130;-60
2021/03/06 10:25:40;;;;;;;5.78;2.10;;;21.10;27.10;;;;;;5096658;28;20067;-60
2021/03/06 10:28:11;;;;;;;4.65;2.10;;;21.20;27.10;;;;;;5097237;28;20048;-59
2021/03/06 10:30:39;;;;;;;7.35;2.40;;;21.20;27.10;;;;;;5096917;28;20024;-59
2021/03/06 10:33:17;;;;;;;4.65;1.80;;;21.20;26.90;;;;;;5096864;28;20024;-59
2021/03/06 10:35:49;;;;;;;5.47;2.15;;;21.20;27.10;;;;;;5096981;28;20032;-60
2021/03/06 10:38:25;;;;;;;5.38;2.00;;;21.30;27.00;;;;;;5097214;28;20041;-60
2021/03/06 10:40:56;;;;;;;5.78;1.92;;;21.30;26.90;;;;;;5096897;28;20036;-60
2021/03/06 10:43:35;;;;;;;6.78;2.42;;;21.40;26.80;;;;;;5096493;28;20020;-60
2021/03/06 10:46:16;;;;;;;5.22;2.08;;;21.40;26.70;;;;;;5096481;28;20083;-60
2021/03/06 10:48:44;;;;;;;6.25;2.20;;;21.40;26.60;;;;;;5097342;28;20487;-60
2021/03/06 10:51:10;;;;;;;5.15;2.03;;;21.50;26.60;;;;;;5096842;28;20081;-60
2021/03/06 10:53:36;;;;;;;5.82;2.17;;;21.50;26.70;;;;;;5096302;28;20028;-60
2021/03/06 10:56:07;;;;;;;4.28;1.80;;;21.50;26.60;;;;;;5096868;28;20387;-60
2021/03/06 10:58:47;;;;;;;6.10;2.15;;;21.50;26.60;;;;;;5097277;28;20020;-60
2021/03/06 11:01:15;;;;;;;4.85;1.70;;;21.50;26.80;;;;;;5096780;28;20016;-60
2021/03/06 11:03:45;;;;;;;4.80;1.80;;;21.50;26.70;;;;;;5096819;28;20165;-60
2021/03/06 11:06:12;;;;;;;5.18;2.40;;;21.50;26.30;;;;;;5097107;28;20081;-60
2021/03/06 11:08:39;;;;;;;4.85;2.08;;;21.60;26.50;;;;;;5095898;28;20073;-60
2021/03/06 11:11:07;;;;;;;5.40;1.98;;;21.60;26.40;;;;;;5094910;28;20024;-60
2021/03/06 11:13:46;;;;;;;6.30;1.90;;;21.50;26.60;;;;;;5096010;28;20020;-59
2021/03/06 11:16:13;;;;;;;6.63;2.05;;;21.60;26.40;;;;;;5096051;28;20050;-59
2021/03/06 11:18:43;;;;;;;4.50;1.88;;;21.60;26.40;;;;;;5095621;28;20048;-60
2021/03/06 11:21:14;;;;;;;4.05;1.80;;;21.70;26.20;;;;;;5096191;28;20024;-59
2021/03/06 11:23:40;;;;;;;4.43;1.63;;;21.70;26.10;;;;;;5094774;28;20368;-59
2021/03/06 11:26:06;;;;;;;5.75;2.38;;;21.70;26.10;;;;;;5095751;28;20479;-59
2021/03/06 11:28:33;;;;;;;4.97;1.80;;;21.60;26.20;;;;;;5095652;28;20034;-58
2021/03/06 11:31:04;;;;;;;6.55;1.90;;;21.60;26.20;;;;;;5095589;28;20047;-59
2021/03/06 11:33:29;;;;;;;6.13;1.98;;;21.70;26.10;;;;;;5095859;28;20074;-59
2021/03/06 11:35:55;;;;;;;5.18;1.90;;;21.70;26.00;;;;;;5095640;28;20464;-59
2021/03/06 11:38:23;;;;;;;4.65;1.90;;;21.70;26.10;;;;;;5095286;28;20068;-59
2021/03/06 11:40:52;;;;;;;5.05;1.77;;;21.70;26.10;;;;;;5095509;28;20110;-59
2021/03/06 11:43:18;;;;;;;5.30;1.88;;;21.70;26.10;;;;;;5095668;28;20016;-59
2021/03/06 11:45:44;;;;;;;6.85;2.00;;;21.70;26.10;;;;;;5095467;28;20480;-59
2021/03/06 11:48:11;;;;;;;3.47;1.83;;;21.80;26.10;;;;;;5095552;28;20120;-59
2021/03/06 11:50:39;;;;;;;4.32;1.50;;;21.80;26.00;;;;;;5095559;28;20028;-59
2021/03/06 11:53:05;;;;;;;4.50;1.70;;;21.90;26.00;;;;;;5095582;28;20125;-60
2021/03/06 11:55:34;;;;;;;4.60;1.75;;;22.00;26.00;;;;;;5095586;28;20063;-60
2021/03/06 11:58:00;;;;;;;4.80;1.67;;;22.00;25.80;;;;;;5095044;28;20024;-59
2021/03/06 12:00:28;;;;;;;3.58;1.70;;;22.10;26.00;;;;;;5095331;28;20082;-60
2021/03/06 12:02:54;;;;;;;4.43;1.67;;;22.20;25.80;;;;;;5095555;28;20078;-59
2021/03/06 12:05:20;;;;;;;3.47;1.45;;;22.20;25.90;;;;;;5095111;28;20075;-59
2021/03/06 12:07:47;;;;;;;4.30;1.50;;;22.20;25.70;;;;;;5094987;28;20101;-59
2021/03/06 12:10:15;;;;;;;3.40;1.30;;;22.30;25.80;;;;;;5095835;28;20024;-58
2021/03/06 12:12:43;;;;;;;5.20;1.90;;;22.30;25.90;;;;;;5095223;28;20028;-59
2021/03/06 12:15:10;;;;;;;5.75;1.83;;;22.40;25.70;;;;;;5095096;28;20380;-59
2021/03/06 12:17:36;;;;;;;5.53;1.83;;;22.40;25.60;;;;;;5095691;28;20156;-59
2021/03/06 12:20:02;;;;;;;4.03;1.65;;;22.50;25.70;;;;;;5095204;28;20388;-59
2021/03/06 12:22:28;;;;;;;4.05;1.50;;;22.50;25.60;;;;;;5095109;28;20051;-59
2021/03/06 12:24:54;;;;;;;5.38;1.75;;;22.50;25.60;;;;;;5096454;28;20074;-60
2021/03/06 12:27:20;;;;;;;5.85;1.48;;;22.50;25.60;;;;;;5097839;28;20044;-59
2021/03/06 12:29:46;;;;;;;4.35;1.73;;;22.50;25.60;;;;;;5104526;28;20107;-62
2021/03/06 12:32:11;;;;;;;4.78;1.50;;;22.50;25.70;;;;;;5102954;28;20054;-59
2021/03/06 12:34:37;;;;;;;5.10;1.50;;;22.40;25.70;;;;;;5099227;28;20024;-59
2021/03/06 12:37:03;;;;;;;4.60;1.30;;;22.40;25.80;;;;;;5100328;28;20020;-60
2021/03/06 12:39:29;;;;;;;5.05;1.50;;;22.40;25.80;;;;;;5100674;28;20024;-59
2021/03/06 12:41:55;;;;;;;2.83;1.50;;;22.30;25.90;;;;;;5098294;28;20032;-59
2021/03/06 12:44:21;;;;;;;4.65;1.55;;;22.30;26.00;;;;;;5099256;28;20032;-60
2021/03/06 12:46:47;;;;;;;3.92;1.55;;;22.20;26.00;;;;;;5097894;28;20028;-59
2021/03/06 12:49:14;;;;;;;4.25;1.40;;;22.20;26.10;;;;;;5098417;28;20028;-59
2021/03/06 12:51:40;;;;;;;4.80;1.80;;;22.20;26.20;;;;;;5099904;28;20115;-59
2021/03/06 12:54:06;;;;;;;3.28;1.20;;;22.10;26.10;;;;;;5097823;28;20051;-59
2021/03/06 12:56:32;;;;;;;2.58;1.25;;;22.00;26.10;;;;;;5100226;28;20541;-60